Arnold Line, Mississippi
Current Conditions -  °F | °C
As of 7:53 PM on Sunday 21 Dec 2014 (Local Time) from KHBG Reporting Station
Haze Haze  
Wind Chill: 53°   Ceiling: 600
Heat Index: 53°   Visibility: 5mi
Dew Point: 51°   Wind: 5mph
Humidity: 93%   Direction: 80°E
Pressure: 30.02"   Gusts: NA
Location:  31.1996°N, 89.2694°W
Report Text: KHBG 220153Z AUTO 08004KT 5SM BR OVC006 12/11 A3002 RMK AO2 SLP166 T01170106
Loading
Personal Weather Stations






























Interactive Weather Map New forecast layout! Learn more

10-Day Weather Forecast

Advertisements
Track Severe Weather on mobile